createdAt,value
2019-02-15T00:01:31.166Z,9.53
2019-02-15T00:04:00.107Z,7.90
2019-02-15T00:06:29.042Z,9.10
2019-02-15T00:08:57.846Z,8.43
2019-02-15T00:11:26.704Z,8.73
2019-02-15T00:13:55.642Z,8.40
2019-02-15T00:16:25.574Z,10.70
2019-02-15T00:19:11.933Z,7.23
2019-02-15T00:21:43.826Z,6.83
2019-02-15T00:24:12.731Z,7.40
2019-02-15T00:26:41.637Z,9.57
2019-02-15T00:29:10.449Z,9.20
2019-02-15T00:31:39.741Z,7.83
2019-02-15T00:34:08.882Z,9.23
2019-02-15T00:36:37.817Z,10.53
2019-02-15T00:39:07.541Z,7.87
2019-02-15T00:41:36.434Z,9.47
2019-02-15T00:44:05.309Z,8.03
2019-02-15T00:46:56.123Z,7.50
2019-02-15T00:49:32.302Z,8.57
2019-02-15T00:52:08.824Z,9.07
2019-02-15T00:54:55.494Z,9.50
2019-02-15T00:57:41.545Z,9.47
2019-02-15T01:00:28.245Z,9.30
2019-02-15T01:03:28.311Z,7.57
2019-02-15T01:06:21.558Z,8.47
2019-02-15T01:09:03.459Z,10.27
2019-02-15T01:11:37.554Z,8.33
2019-02-15T01:14:06.543Z,7.50
2019-02-15T01:16:35.517Z,9.03
2019-02-15T01:19:04.506Z,9.03
2019-02-15T01:21:33.379Z,9.33
2019-02-15T01:24:02.311Z,7.90
2019-02-15T01:26:45.559Z,8.67
2019-02-15T01:29:39.367Z,9.53
2019-02-15T01:32:33.371Z,8.70
2019-02-15T01:35:25.302Z,8.20
2019-02-15T01:38:16.342Z,10.83
2019-02-15T01:41:16.547Z,10.43
2019-02-15T01:43:59.165Z,8.37
2019-02-15T01:46:39.537Z,7.40
2019-02-15T01:49:08.517Z,8.17
2019-02-15T01:51:37.628Z,7.80
2019-02-15T01:55:17.121Z,6.90
2019-02-15T01:59:07.621Z,8.77
2019-02-15T02:01:39.284Z,11.90
2019-02-15T02:04:24.249Z,8.13
2019-02-15T02:07:07.477Z,9.37
2019-02-15T02:09:37.531Z,7.63
2019-02-15T02:12:07.654Z,8.17
2019-02-15T02:20:48.426Z,10.20
2019-02-15T02:23:22.400Z,7.13
2019-02-15T02:25:52.765Z,10.27
2019-02-15T02:28:23.013Z,7.10
2019-02-15T02:30:52.445Z,9.97
2019-02-15T02:36:16.078Z,8.80
2019-02-15T02:38:45.788Z,6.50
2019-02-15T02:41:19.787Z,9.13
2019-02-15T02:46:42.877Z,9.73
2019-02-15T02:50:25.598Z,9.80
2019-02-15T02:52:54.975Z,6.73
2019-02-15T02:55:27.752Z,7.27
2019-02-15T03:00:36.952Z,7.17
2019-02-15T03:03:32.314Z,8.57
2019-02-15T03:10:13.671Z,6.87
2019-02-15T03:13:08.050Z,8.63
2019-02-15T03:18:42.389Z,7.03
2019-02-15T03:28:47.856Z,9.63
2019-02-15T03:31:23.644Z,10.87
2019-02-15T03:34:16.903Z,10.00
2019-02-15T03:37:28.082Z,7.83
2019-02-15T03:40:03.526Z,9.93
2019-02-15T03:42:33.812Z,8.37
2019-02-15T03:52:02.690Z,8.27
2019-02-15T03:54:55.755Z,11.53
2019-02-15T03:57:35.984Z,10.27
2019-02-15T04:06:41.451Z,9.47
2019-02-15T04:13:06.598Z,9.47
2019-02-15T04:19:01.432Z,10.97
2019-02-15T04:24:28.222Z,9.63
2019-02-15T04:27:06.647Z,7.40
2019-02-15T04:29:41.059Z,10.27
2019-02-15T04:32:13.193Z,12.37
2019-02-15T04:41:35.036Z,10.07
2019-02-15T04:47:21.011Z,10.67
2019-02-15T04:50:19.604Z,8.20
2019-02-15T04:56:19.545Z,8.47
2019-02-15T04:58:50.516Z,9.67
2019-02-15T05:05:32.512Z,10.47
2019-02-15T05:08:02.580Z,12.97
2019-02-15T05:10:34.030Z,7.10
2019-02-15T05:13:37.484Z,8.30
2019-02-15T05:16:08.163Z,9.97
2019-02-15T05:18:44.285Z,10.80
2019-02-15T05:21:14.501Z,11.97
2019-02-15T05:23:44.315Z,9.03
2019-02-15T05:26:14.170Z,9.63
2019-02-15T05:29:06.168Z,11.13
2019-02-15T05:31:40.422Z,8.77
2019-02-15T05:34:07.529Z,11.43
2019-02-15T05:37:05.976Z,9.20
2019-02-15T05:40:31.327Z,9.13
2019-02-15T05:43:01.371Z,9.97
2019-02-15T05:45:31.500Z,11.40
2019-02-15T05:48:01.181Z,7.77
2019-02-15T05:50:30.684Z,9.13
2019-02-15T05:53:00.110Z,12.20
2019-02-15T05:55:31.230Z,7.83
2019-02-15T06:07:14.138Z,10.10
2019-02-15T06:09:56.729Z,8.47
2019-02-15T06:12:31.993Z,8.00
2019-02-15T06:15:02.710Z,7.90
2019-02-15T06:21:28.976Z,8.00
2019-02-15T06:27:22.662Z,7.40
2019-02-15T06:29:58.699Z,9.07
2019-02-15T06:32:30.341Z,9.90
2019-02-15T06:34:59.879Z,10.37
2019-02-15T06:37:31.474Z,8.30
2019-02-15T06:40:01.757Z,6.97
2019-02-15T06:42:31.045Z,11.17
2019-02-15T06:45:03.949Z,10.47
2019-02-15T06:51:52.160Z,9.00
2019-02-15T06:54:21.609Z,9.37
2019-02-15T06:56:51.024Z,9.87
2019-02-15T06:59:49.191Z,9.73
2019-02-15T07:08:29.843Z,7.43
2019-02-15T07:10:59.206Z,11.40
2019-02-15T07:13:28.652Z,12.27
2019-02-15T07:15:59.546Z,9.13
2019-02-15T07:18:28.938Z,12.97
2019-02-15T07:20:58.082Z,12.60
2019-02-15T07:23:27.691Z,13.13
2019-02-15T07:25:56.991Z,14.13
2019-02-15T07:28:45.215Z,10.13
2019-02-15T07:31:18.385Z,9.70
2019-02-15T07:33:50.946Z,12.77
2019-02-15T07:36:26.400Z,8.80
2019-02-15T07:38:55.614Z,12.20
2019-02-15T07:41:42.237Z,11.43
2019-02-15T07:44:20.451Z,10.30
2019-02-15T07:49:42.731Z,8.50
2019-02-15T07:52:11.971Z,9.23
2019-02-15T07:54:40.959Z,8.27
2019-02-15T07:57:09.853Z,10.50
2019-02-15T07:59:38.697Z,7.10
2019-02-15T08:02:07.617Z,8.50
2019-02-15T08:04:36.402Z,9.03
2019-02-15T08:07:05.352Z,6.83
2019-02-15T08:09:34.228Z,7.90
2019-02-15T08:12:03.120Z,9.77
2019-02-15T08:14:32.026Z,8.70
2019-02-15T08:17:01.171Z,10.47
2019-02-15T08:19:30.072Z,10.20
2019-02-15T08:21:59.033Z,9.60
2019-02-15T08:24:27.970Z,8.30
2019-02-15T08:26:57.026Z,9.40
2019-02-15T08:29:26.185Z,10.57
2019-02-15T08:31:55.041Z,9.07
2019-02-15T08:34:23.913Z,7.13
2019-02-15T08:36:52.946Z,12.27
2019-02-15T08:39:21.875Z,11.63
2019-02-15T08:42:01.399Z,8.77
2019-02-15T08:44:21.367Z,9.60
2019-02-15T08:46:50.646Z,10.27
2019-02-15T08:49:19.673Z,9.37
2019-02-15T08:51:48.676Z,9.97
2019-02-15T08:54:17.481Z,9.63
2019-02-15T08:56:46.425Z,11.87
2019-02-15T08:59:15.254Z,7.67
2019-02-15T09:01:45.805Z,10.50
2019-02-15T09:04:14.762Z,11.23
2019-02-15T09:06:44.115Z,9.33
2019-02-15T09:09:13.074Z,8.40
2019-02-15T09:11:41.931Z,9.60
2019-02-15T09:14:10.770Z,10.13
2019-02-15T09:16:39.619Z,9.13
2019-02-15T09:19:08.540Z,10.73
2019-02-15T09:21:37.466Z,9.30
2019-02-15T09:24:06.388Z,10.70
2019-02-15T09:26:35.467Z,11.97
2019-02-15T09:29:07.547Z,10.93
2019-02-15T09:31:36.375Z,10.67
2019-02-15T09:34:05.300Z,12.03
2019-02-15T09:36:34.240Z,13.03
2019-02-15T09:39:03.721Z,8.90
2019-02-15T09:41:32.693Z,9.17
2019-02-15T09:44:01.909Z,11.30
2019-02-15T09:46:30.746Z,8.70
2019-02-15T09:48:59.830Z,9.23
2019-02-15T09:51:28.813Z,11.50
2019-02-15T09:53:57.665Z,10.20
2019-02-15T09:56:26.677Z,10.63
2019-02-15T09:58:55.626Z,9.23
2019-02-15T10:01:24.601Z,10.00
2019-02-15T10:03:55.219Z,10.70
2019-02-15T10:06:24.206Z,11.43
2019-02-15T10:08:53.115Z,9.97
2019-02-15T10:11:21.982Z,11.40
2019-02-15T10:13:50.913Z,10.17
2019-02-15T10:16:28.244Z,11.97
2019-02-15T10:18:50.528Z,10.60
2019-02-15T10:21:19.725Z,9.97
2019-02-15T10:23:48.610Z,9.37
2019-02-15T10:26:17.567Z,9.43
2019-02-15T10:28:46.427Z,9.30
2019-02-15T10:31:15.649Z,10.50
2019-02-15T10:33:44.831Z,9.10
2019-02-15T10:36:13.802Z,7.93
2019-02-15T10:38:42.725Z,8.67
2019-02-15T10:41:11.698Z,10.87
2019-02-15T10:43:40.598Z,7.37
2019-02-15T10:46:09.400Z,8.10
2019-02-15T10:48:38.968Z,12.70
2019-02-15T10:51:07.891Z,7.80
2019-02-15T10:53:37.156Z,10.60
2019-02-15T10:56:06.276Z,9.50
2019-02-15T10:58:35.201Z,7.87
2019-02-15T11:01:04.179Z,7.73
2019-02-15T11:03:33.054Z,7.53
2019-02-15T11:06:01.878Z,7.93
2019-02-15T11:08:30.753Z,8.03
2019-02-15T11:10:59.641Z,7.93
2019-02-15T11:13:28.965Z,8.55
2019-02-15T11:15:57.853Z,6.42
2019-02-15T11:18:26.774Z,8.20
2019-02-15T11:20:55.683Z,7.30
2019-02-15T11:23:24.606Z,8.45
2019-02-15T11:25:53.664Z,10.72
2019-02-15T11:28:22.530Z,6.47
2019-02-15T11:30:51.665Z,6.62
2019-02-15T11:33:20.523Z,9.13
2019-02-15T11:35:49.394Z,7.62
2019-02-15T11:38:18.307Z,8.45
2019-02-15T11:40:47.269Z,7.37
2019-02-15T11:43:16.194Z,7.72
2019-02-15T11:45:45.103Z,5.65
2019-02-15T11:48:13.993Z,6.95
2019-02-15T11:50:42.945Z,6.08
2019-02-15T11:53:11.874Z,5.12
2019-02-15T11:55:40.897Z,6.05
2019-02-15T11:58:09.840Z,5.37
2019-02-15T12:00:38.698Z,6.45
2019-02-15T12:03:07.743Z,5.45
2019-02-15T12:05:36.574Z,4.65
2019-02-15T12:08:05.658Z,7.35
2019-02-15T12:10:34.449Z,5.65
2019-02-15T12:13:03.265Z,5.92
2019-02-15T12:15:32.238Z,4.15
2019-02-15T12:18:01.072Z,3.95
2019-02-15T12:20:29.935Z,5.17
2019-02-15T12:22:58.782Z,4.95
2019-02-15T12:25:27.765Z,5.53
2019-02-15T12:27:56.754Z,4.83
2019-02-15T12:30:25.697Z,4.70
2019-02-15T12:32:54.567Z,8.53
2019-02-15T12:35:23.467Z,4.35
2019-02-15T12:37:52.439Z,6.87
2019-02-15T12:40:21.297Z,3.80
2019-02-15T12:42:50.125Z,4.05
2019-02-15T12:45:19.139Z,5.80
2019-02-15T12:47:47.980Z,5.85
2019-02-15T12:50:17.091Z,4.67
2019-02-15T12:52:46.187Z,6.28
2019-02-15T12:55:15.121Z,6.08
2019-02-15T12:57:44.253Z,4.50
2019-02-15T13:00:13.904Z,5.08
2019-02-15T13:02:42.869Z,5.17
2019-02-15T13:05:11.996Z,3.22
2019-02-15T13:07:41.002Z,5.05
2019-02-15T13:10:12.414Z,4.83
2019-02-15T13:12:41.506Z,4.08
2019-02-15T13:15:10.857Z,6.00
2019-02-15T13:17:39.866Z,4.42
2019-02-15T13:20:09.027Z,4.22
2019-02-15T13:22:38.034Z,7.33
2019-02-15T13:25:07.009Z,2.67
2019-02-15T13:27:35.963Z,3.27
2019-02-15T13:30:05.391Z,3.22
2019-02-15T13:32:34.319Z,5.80
2019-02-15T13:35:03.218Z,3.87
2019-02-15T13:37:32.130Z,3.27
2019-02-15T13:40:01.046Z,4.17
2019-02-15T13:42:30.055Z,4.45
2019-02-15T13:44:58.987Z,3.05
2019-02-15T13:47:34.591Z,2.77
2019-02-15T13:49:58.859Z,2.60
2019-02-15T13:52:27.761Z,3.85
2019-02-15T13:54:56.767Z,4.87
2019-02-15T13:57:26.333Z,4.28
2019-02-15T13:59:55.698Z,4.30
2019-02-15T14:02:25.255Z,7.35
2019-02-15T14:04:56.806Z,2.98
2019-02-15T14:07:30.896Z,5.15
2019-02-15T14:10:10.093Z,6.17
2019-02-15T14:12:45.621Z,3.85
2019-02-15T14:15:15.644Z,3.17
2019-02-15T14:17:48.214Z,3.92
2019-02-15T14:20:31.242Z,1.92
2019-02-15T14:23:10.439Z,2.92
2019-02-15T14:25:44.496Z,2.45
2019-02-15T14:28:13.962Z,4.17
2019-02-15T14:30:43.405Z,4.95
2019-02-15T14:33:13.017Z,3.67
2019-02-15T14:35:42.560Z,3.85
2019-02-15T14:38:20.607Z,3.83
2019-02-15T14:40:51.505Z,3.72
2019-02-15T14:43:21.099Z,3.05
2019-02-15T14:45:50.434Z,3.25
2019-02-15T14:48:20.182Z,2.80
2019-02-15T14:50:56.539Z,4.00
2019-02-15T14:56:25.583Z,2.30
2019-02-15T14:58:55.458Z,2.58
2019-02-15T15:01:28.432Z,3.30
2019-02-15T15:03:57.620Z,4.28
2019-02-15T15:06:27.236Z,3.47
2019-02-15T15:09:21.664Z,8.10
2019-02-15T15:11:57.482Z,4.45
2019-02-15T15:20:40.680Z,5.93
2019-02-15T15:23:13.524Z,5.80
2019-02-15T15:25:44.270Z,3.00
2019-02-15T15:28:51.028Z,4.77
2019-02-15T15:31:21.990Z,3.62
2019-02-15T15:34:05.346Z,6.07
2019-02-15T15:36:34.857Z,6.63
2019-02-15T15:39:05.824Z,5.57
2019-02-15T15:41:35.084Z,3.97
2019-02-15T15:44:04.599Z,4.33
2019-02-15T15:46:54.113Z,5.90
2019-02-15T15:49:23.738Z,16.55
2019-02-15T15:51:53.460Z,8.27
2019-02-15T15:54:25.323Z,5.77
2019-02-15T15:56:54.532Z,5.90
2019-02-15T15:59:26.803Z,9.23
2019-02-15T16:01:56.174Z,9.50
2019-02-15T16:04:25.672Z,4.27
2019-02-15T16:06:55.030Z,7.47
2019-02-15T16:09:24.390Z,6.33
2019-02-15T16:11:53.572Z,6.47
2019-02-15T16:14:23.055Z,6.90
2019-02-15T16:16:52.316Z,5.90
2019-02-15T16:19:21.664Z,7.03
2019-02-15T16:21:51.042Z,7.20
2019-02-15T16:24:20.508Z,9.10
2019-02-15T16:26:49.639Z,8.27
2019-02-15T16:29:18.841Z,6.13
2019-02-15T16:31:48.128Z,5.50
2019-02-15T16:34:28.308Z,9.37
2019-02-15T16:36:53.008Z,8.07
2019-02-15T16:39:22.229Z,9.93
2019-02-15T16:42:00.834Z,8.53
2019-02-15T16:44:36.057Z,9.50
2019-02-15T16:47:05.465Z,8.23
2019-02-15T16:49:38.536Z,5.63
2019-02-15T16:52:07.868Z,6.00
2019-02-15T16:54:37.216Z,6.80
2019-02-15T16:57:06.555Z,6.73
2019-02-15T16:59:36.119Z,5.07
2019-02-15T17:02:31.253Z,6.13
2019-02-15T17:05:05.889Z,6.23
2019-02-15T17:07:35.334Z,6.90
2019-02-15T17:10:04.936Z,5.50
2019-02-15T17:12:54.561Z,7.73
2019-02-15T17:15:32.638Z,8.53
2019-02-15T17:18:10.029Z,7.50
2019-02-15T17:20:45.513Z,11.63
2019-02-15T17:23:21.063Z,7.17
2019-02-15T17:25:50.375Z,6.00
2019-02-15T17:28:19.644Z,6.87
2019-02-15T17:31:34.527Z,9.40
2019-02-15T17:34:06.152Z,6.30
2019-02-15T17:36:37.256Z,6.93
2019-02-15T17:39:21.333Z,10.87
2019-02-15T17:41:54.289Z,7.40
2019-02-15T17:44:23.967Z,8.87
2019-02-15T17:47:06.631Z,9.70
2019-02-15T17:49:36.016Z,8.03
2019-02-15T17:52:10.404Z,7.20
2019-02-15T17:54:39.924Z,7.63
2019-02-15T17:57:12.046Z,7.67
2019-02-15T17:59:43.255Z,6.83
2019-02-15T18:02:27.380Z,6.57
2019-02-15T18:04:51.678Z,8.63
2019-02-15T18:07:25.682Z,8.80
2019-02-15T18:12:48.684Z,8.10
2019-02-15T18:15:29.481Z,7.23
2019-02-15T18:18:13.458Z,9.70
2019-02-15T18:20:43.221Z,9.63
2019-02-15T18:23:23.238Z,10.93
2019-02-15T18:25:52.694Z,10.93
2019-02-15T18:28:22.316Z,13.50
2019-02-15T18:30:51.957Z,11.20
2019-02-15T18:33:29.941Z,7.57
2019-02-15T18:36:06.672Z,7.77
2019-02-15T18:38:40.753Z,10.07
2019-02-15T18:41:20.694Z,9.10
2019-02-15T18:43:55.060Z,9.23
2019-02-15T18:46:27.878Z,9.43
2019-02-15T18:49:02.826Z,11.70
2019-02-15T18:51:32.949Z,14.70
2019-02-15T19:00:14.663Z,10.43
2019-02-15T19:06:04.262Z,11.73
2019-02-15T19:08:36.514Z,15.50
2019-02-15T19:11:24.417Z,10.43
2019-02-15T19:14:29.165Z,12.47
2019-02-15T19:17:14.478Z,11.70
2019-02-15T19:19:44.331Z,12.87
2019-02-15T19:22:40.778Z,11.00
2019-02-15T19:25:19.138Z,9.30
2019-02-15T19:27:55.662Z,11.90
2019-02-15T19:30:30.907Z,11.37
2019-02-15T19:33:11.370Z,6.67
2019-02-15T19:35:41.637Z,7.57
2019-02-15T19:38:31.184Z,6.23
2019-02-15T19:41:09.602Z,5.87
2019-02-15T19:44:28.325Z,10.67
2019-02-15T19:47:08.736Z,8.40
2019-02-15T19:50:20.997Z,10.43
2019-02-15T19:53:40.845Z,6.93
2019-02-15T19:56:22.186Z,7.63
2019-02-15T19:59:24.973Z,6.87
2019-02-15T20:01:54.302Z,5.93
2019-02-15T20:04:23.283Z,6.23
2019-02-15T20:06:52.435Z,10.93
2019-02-15T20:09:21.711Z,5.33
2019-02-15T20:11:51.827Z,6.97
2019-02-15T20:14:21.228Z,5.83
2019-02-15T20:16:50.424Z,7.20
2019-02-15T20:19:19.530Z,8.73
2019-02-15T20:21:48.566Z,7.00
2019-02-15T20:24:17.580Z,7.20
2019-02-15T20:26:46.730Z,10.80
2019-02-15T20:29:15.854Z,7.77
2019-02-15T20:31:44.800Z,8.93
2019-02-15T20:34:13.794Z,11.67
2019-02-15T20:36:43.063Z,10.57
2019-02-15T20:39:12.090Z,11.13
2019-02-15T20:41:41.098Z,10.47
2019-02-15T20:44:10.040Z,9.77
2019-02-15T20:46:39.022Z,10.47
2019-02-15T20:49:08.411Z,9.97
2019-02-15T20:51:37.637Z,12.20
2019-02-15T20:54:07.058Z,12.37
2019-02-15T20:56:36.192Z,11.70
2019-02-15T20:59:05.710Z,12.13
2019-02-15T21:01:34.832Z,9.17
2019-02-15T21:04:04.255Z,10.43
2019-02-15T21:06:33.400Z,14.93
2019-02-15T21:09:03.038Z,10.53
2019-02-15T21:11:32.286Z,10.20
2019-02-15T21:14:01.550Z,8.63
2019-02-15T21:16:31.070Z,10.90
2019-02-15T21:19:00.027Z,8.53
2019-02-15T21:21:29.183Z,8.37
2019-02-15T21:23:58.771Z,7.60
2019-02-15T21:26:28.124Z,8.93
2019-02-15T21:28:57.265Z,11.53
2019-02-15T21:31:26.390Z,11.33
2019-02-15T21:33:55.477Z,9.60
2019-02-15T21:36:24.431Z,10.17
2019-02-15T21:38:53.548Z,7.83
2019-02-15T21:41:22.694Z,8.87
2019-02-15T21:43:52.005Z,8.57
2019-02-15T21:46:21.195Z,9.07
2019-02-15T21:48:50.589Z,7.73
2019-02-15T21:51:19.780Z,6.07
2019-02-15T21:53:50.709Z,6.57
2019-02-15T21:56:20.017Z,8.43
2019-02-15T21:58:49.576Z,6.73
2019-02-15T22:01:18.514Z,9.60
2019-02-15T22:03:47.615Z,9.73
2019-02-15T22:06:16.859Z,9.57
2019-02-15T22:08:45.677Z,9.40
2019-02-15T22:11:14.534Z,12.17
2019-02-15T22:13:43.668Z,12.77
2019-02-15T22:16:12.920Z,11.20
2019-02-15T22:18:42.029Z,10.97
2019-02-15T22:21:11.150Z,11.70
2019-02-15T22:23:39.991Z,10.53
2019-02-15T22:26:08.917Z,8.67
2019-02-15T22:28:37.825Z,11.47
2019-02-15T22:31:06.898Z,8.90
2019-02-15T22:33:35.946Z,8.47
2019-02-15T22:36:04.912Z,6.83
2019-02-15T22:38:33.873Z,10.67
2019-02-15T22:41:17.021Z,8.13
2019-02-15T22:43:46.728Z,8.77
2019-02-15T22:46:15.643Z,7.90
2019-02-15T22:48:44.797Z,7.87
2019-02-15T22:51:13.736Z,6.67
2019-02-15T22:53:42.697Z,7.33
2019-02-15T22:56:11.529Z,11.73
2019-02-15T22:58:40.654Z,7.60
2019-02-15T23:01:18.544Z,11.10
2019-02-15T23:03:47.583Z,10.43
2019-02-15T23:06:16.541Z,9.57
2019-02-15T23:08:45.480Z,10.60
2019-02-15T23:11:14.429Z,11.63
2019-02-15T23:13:43.362Z,8.47
2019-02-15T23:16:12.200Z,10.27
2019-02-15T23:18:41.126Z,10.10
2019-02-15T23:21:10.421Z,11.17
2019-02-15T23:23:39.426Z,9.17
2019-02-15T23:26:08.430Z,9.53
2019-02-15T23:28:37.249Z,14.30
2019-02-15T23:31:06.166Z,11.33
2019-02-15T23:33:35.202Z,9.93
2019-02-15T23:36:04.129Z,9.17
2019-02-15T23:38:32.974Z,13.50
2019-02-15T23:41:01.929Z,6.57
2019-02-15T23:43:31.254Z,7.67
2019-02-15T23:46:00.339Z,9.37
2019-02-15T23:48:29.309Z,8.27
2019-02-15T23:50:58.264Z,11.87
2019-02-15T23:53:27.122Z,9.23
2019-02-15T23:55:56.073Z,10.30
2019-02-15T23:58:24.981Z,8.80
